Estación Meteorológica Peña el Pijo (Robertgarden) [ 02/03/23 03:35:29 CET ]

Fecha Hora Presion(HPa) Temp (°C) Humedad % Rocio (°C) Viento ( m/s) Direccion Lluvia 1Hora(mm) Lluvia 24H(mm) LLuvia Total(mm)
2012-Jun-13 01:01:15 1011.200 11.4 50 1.4         159.54
2012-Jun-13 02:01:12 1011.000 10.2 55 1.5         159.54
2012-Jun-13 03:01:44 1011.000 9.3 59 1.7         159.54
2012-Jun-13 04:01:48 1010.800 8.8 61 1.7         159.54
2012-Jun-13 05:01:52 1010.700 8.3 64 1.9         159.54
2012-Jun-13 06:01:47 1010.800 7.5 67 1.8         159.54
2012-Jun-13 07:01:14 1010.900 7.2 69 1.9         159.54
2012-Jun-13 08:01:16 1010.900 9.9 67 4.0         159.54
2012-Jun-13 09:01:22 1011.000 17.1 49 6.3         159.54
2012-Jun-13 10:01:14 1011.000 22.5 33 5.3         159.54
2012-Jun-13 11:01:14 1011.100 25.1 27 4.6 0.4 WNW     159.54
2012-Jun-13 12:01:14 1011.000 26.9 24 4.4         159.54
2012-Jun-13 13:01:14 1010.900 27.4 23 4.3         159.54
2012-Jun-13 14:01:13 1010.500 27.2 23 4.1 0.6 N     159.54
2012-Jun-13 15:01:15 1010.000 27.2 23 4.1         159.54
2012-Jun-13 16:01:12 1009.500 27.6 24 5.0         159.54
2012-Jun-13 17:01:14 1008.900 28.7 23 5.3         159.54
2012-Jun-13 18:01:17 1009.000 24.3 30 5.7         159.54
2012-Jun-13 19:01:16 1009.100 24.9 33 7.5 2.4 ENE     159.54
2012-Jun-13 20:01:11 1009.400 23.1 35 6.7         159.54
2012-Jun-13 21:01:16 1010.000 20.1 41 6.4         159.54
2012-Jun-13 22:01:16 1010.000 18.2 44 5.7         159.54
2012-Jun-13 23:01:16 1010.800 15.8 51 5.7         159.54

Temperatura Máxima:28°    Temperatura Mínima:
Presión Máxima:1011.200 Hpa    Presión Mínima:1008.900 Hpa


Volver